sensor_id;sensor_type;location;lat;lon;timestamp;pressure;altitude;pressure_sealevel;temperature;humidity
32789;BME280;19141;48.980;8.410;2023-03-19T05:22:32;100076.78;;;9.32;93.31
32789;BME280;19141;48.980;8.410;2023-03-19T05:24:59;100069.50;;;9.25;94.25
32789;BME280;19141;48.980;8.410;2023-03-19T05:27:26;100079.97;;;9.27;93.40
32789;BME280;19141;48.980;8.410;2023-03-19T05:30:05;100068.66;;;9.25;92.76
32789;BME280;19141;48.980;8.410;2023-03-19T05:32:48;100064.84;;;9.28;93.57
32789;BME280;19141;48.980;8.410;2023-03-19T05:35:25;100071.31;;;9.25;93.45
32789;BME280;19141;48.980;8.410;2023-03-19T05:37:52;100075.47;;;9.28;93.93
32789;BME280;19141;48.980;8.410;2023-03-19T05:40:19;100064.34;;;9.24;94.34
32789;BME280;19141;48.980;8.410;2023-03-19T05:42:45;100072.66;;;9.29;94.13
32789;BME280;19141;48.980;8.410;2023-03-19T05:45:13;100066.00;;;9.25;94.40
32789;BME280;19141;48.980;8.410;2023-03-19T05:47:48;100069.16;;;9.29;94.49
32789;BME280;19141;48.980;8.410;2023-03-19T05:50:16;100071.81;;;9.29;94.26
32789;BME280;19141;48.980;8.410;2023-03-19T05:52:58;100069.00;;;9.30;93.82
32789;BME280;19141;48.980;8.410;2023-03-19T05:55:24;100067.97;;;9.31;93.55
32789;BME280;19141;48.980;8.410;2023-03-19T05:57:58;100069.63;;;9.32;95.03
32789;BME280;19141;48.980;8.410;2023-03-19T06:00:25;100072.16;;;9.34;94.59
32789;BME280;19141;48.980;8.410;2023-03-19T06:02:51;100077.75;;;9.39;94.25
32789;BME280;19141;48.980;8.410;2023-03-19T06:05:35;100082.75;;;9.42;93.36
32789;BME280;19141;48.980;8.410;2023-03-19T06:08:21;100088.72;;;9.44;93.03
32789;BME280;19141;48.980;8.410;2023-03-19T06:11:02;100088.72;;;9.44;94.19
32789;BME280;19141;48.980;8.410;2023-03-19T06:13:28;100087.59;;;9.46;94.21
32789;BME280;19141;48.980;8.410;2023-03-19T06:16:05;100097.38;;;9.46;93.82
32789;BME280;19141;48.980;8.410;2023-03-19T06:18:37;100100.53;;;9.49;93.27
32789;BME280;19141;48.980;8.410;2023-03-19T06:21:07;100095.34;;;9.56;92.09
32789;BME280;19141;48.980;8.410;2023-03-19T06:23:32;100096.34;;;9.55;92.01
32789;BME280;19141;48.980;8.410;2023-03-19T06:25:59;100086.06;;;9.52;91.16
32789;BME280;19141;48.980;8.410;2023-03-19T06:28:30;100092.53;;;9.49;90.55
32789;BME280;19141;48.980;8.410;2023-03-19T06:30:56;100095.16;;;9.58;90.18
32789;BME280;19141;48.980;8.410;2023-03-19T06:33:40;100087.88;;;9.51;91.01
32789;BME280;19141;48.980;8.410;2023-03-19T06:36:06;100093.19;;;9.60;90.54
32789;BME280;19141;48.980;8.410;2023-03-19T06:38:32;100098.81;;;9.65;88.04
32789;BME280;19141;48.980;8.410;2023-03-19T06:40:57;100101.16;;;9.68;87.03
32789;BME280;19141;48.980;8.410;2023-03-19T06:43:23;100104.44;;;9.70;88.25
32789;BME280;19141;48.980;8.410;2023-03-19T06:45:48;100099.81;;;9.72;87.96
32789;BME280;19141;48.980;8.410;2023-03-19T06:48:14;100111.94;;;9.74;88.27
32789;BME280;19141;48.980;8.410;2023-03-19T06:50:40;100105.09;;;9.80;88.19
32789;BME280;19141;48.980;8.410;2023-03-19T06:53:05;100110.75;;;9.85;88.51
32789;BME280;19141;48.980;8.410;2023-03-19T06:55:30;100110.19;;;9.90;89.06
32789;BME280;19141;48.980;8.410;2023-03-19T06:57:56;100101.41;;;9.89;89.32
32789;BME280;19141;48.980;8.410;2023-03-19T07:00:21;100105.69;;;9.98;90.83
32789;BME280;19141;48.980;8.410;2023-03-19T07:02:47;100109.47;;;10.04;91.14
32789;BME280;19141;48.980;8.410;2023-03-19T07:05:13;100103.00;;;10.06;92.44
32789;BME280;19141;48.980;8.410;2023-03-19T07:07:39;100108.13;;;10.08;90.93
32789;BME280;19141;48.980;8.410;2023-03-19T07:10:05;100114.78;;;10.12;90.22
32789;BME280;19141;48.980;8.410;2023-03-19T07:12:30;100115.63;;;10.13;91.38
32789;BME280;19141;48.980;8.410;2023-03-19T07:14:56;100119.41;;;10.18;91.93
32789;BME280;19141;48.980;8.410;2023-03-19T07:17:22;100121.91;;;10.20;94.33
32789;BME280;19141;48.980;8.410;2023-03-19T07:19:48;100130.53;;;10.22;94.36
32789;BME280;19141;48.980;8.410;2023-03-19T07:22:13;100131.88;;;10.26;92.77
32789;BME280;19141;48.980;8.410;2023-03-19T07:24:38;100132.00;;;10.32;91.82
32789;BME280;19141;48.980;8.410;2023-03-19T07:27:04;100132.47;;;10.36;90.69
32789;BME280;19141;48.980;8.410;2023-03-19T07:29:29;100136.13;;;10.43;90.39
32789;BME280;19141;48.980;8.410;2023-03-19T07:31:55;100138.19;;;10.56;88.93
32789;BME280;19141;48.980;8.410;2023-03-19T07:34:20;100134.13;;;10.68;86.91
32789;BME280;19141;48.980;8.410;2023-03-19T07:36:46;100125.91;;;10.78;87.62
32789;BME280;19141;48.980;8.410;2023-03-19T07:39:11;100126.34;;;10.90;86.98
32789;BME280;19141;48.980;8.410;2023-03-19T07:41:37;100134.91;;;11.00;88.49
32789;BME280;19141;48.980;8.410;2023-03-19T07:44:02;100127.31;;;11.11;83.59
32789;BME280;19141;48.980;8.410;2023-03-19T07:46:28;100135.53;;;11.25;82.69
32789;BME280;19141;48.980;8.410;2023-03-19T07:48:53;100140.56;;;11.43;83.45
32789;BME280;19141;48.980;8.410;2023-03-19T07:51:19;100134.84;;;11.60;83.13
32789;BME280;19141;48.980;8.410;2023-03-19T07:53:44;100139.00;;;11.78;79.69
32789;BME280;19141;48.980;8.410;2023-03-19T07:56:11;100135.72;;;11.90;78.12
32789;BME280;19141;48.980;8.410;2023-03-19T07:58:36;100131.22;;;12.06;78.42
32789;BME280;19141;48.980;8.410;2023-03-19T08:01:02;100132.59;;;12.16;75.28
32789;BME280;19141;48.980;8.410;2023-03-19T08:03:27;100137.25;;;12.29;73.82
32789;BME280;19141;48.980;8.410;2023-03-19T08:05:53;100138.81;;;12.38;72.13
32789;BME280;19141;48.980;8.410;2023-03-19T08:08:18;100137.13;;;12.52;73.02
32789;BME280;19141;48.980;8.410;2023-03-19T08:10:44;100138.09;;;12.66;70.87
32789;BME280;19141;48.980;8.410;2023-03-19T08:13:09;100143.53;;;12.72;71.12
32789;BME280;19141;48.980;8.410;2023-03-19T08:15:35;100132.63;;;12.95;74.20
32789;BME280;19141;48.980;8.410;2023-03-19T08:18:02;100136.97;;;13.18;69.55
32789;BME280;19141;48.980;8.410;2023-03-19T08:20:29;100137.09;;;13.31;68.93
32789;BME280;19141;48.980;8.410;2023-03-19T08:22:55;100136.81;;;13.47;66.78
32789;BME280;19141;48.980;8.410;2023-03-19T08:25:22;100136.41;;;13.78;65.89
32789;BME280;19141;48.980;8.410;2023-03-19T08:27:48;100135.03;;;13.89;63.49
32789;BME280;19141;48.980;8.410;2023-03-19T08:30:14;100133.44;;;14.01;66.32
32789;BME280;19141;48.980;8.410;2023-03-19T08:32:39;100144.19;;;14.08;62.96
32789;BME280;19141;48.980;8.410;2023-03-19T08:35:06;100142.81;;;14.19;62.46
32789;BME280;19141;48.980;8.410;2023-03-19T08:37:31;100136.88;;;14.30;63.03
32789;BME280;19141;48.980;8.410;2023-03-19T08:39:57;100142.78;;;14.60;63.79
32789;BME280;19141;48.980;8.410;2023-03-19T08:42:22;100140.34;;;14.78;60.06
32789;BME280;19141;48.980;8.410;2023-03-19T08:44:48;100135.81;;;14.85;57.71
32789;BME280;19141;48.980;8.410;2023-03-19T08:47:14;100131.13;;;15.14;58.33
32789;BME280;19141;48.980;8.410;2023-03-19T08:49:39;100130.31;;;15.13;58.00
32789;BME280;19141;48.980;8.410;2023-03-19T08:52:05;100142.25;;;15.31;55.12
32789;BME280;19141;48.980;8.410;2023-03-19T08:54:31;100141.84;;;15.47;54.80
32789;BME280;19141;48.980;8.410;2023-03-19T08:56:58;100146.41;;;15.66;57.00
32789;BME280;19141;48.980;8.410;2023-03-19T08:59:24;100140.00;;;15.74;53.17
32789;BME280;19141;48.980;8.410;2023-03-19T09:01:51;100149.44;;;15.90;53.04
32789;BME280;19141;48.980;8.410;2023-03-19T09:04:17;100145.09;;;15.95;50.88
32789;BME280;19141;48.980;8.410;2023-03-19T09:06:42;100135.00;;;15.78;50.94
32789;BME280;19141;48.980;8.410;2023-03-19T09:09:09;100137.06;;;15.82;51.19
32789;BME280;19141;48.980;8.410;2023-03-19T09:11:34;100143.69;;;15.86;52.81
32789;BME280;19141;48.980;8.410;2023-03-19T09:14:00;100136.66;;;15.92;53.35
32789;BME280;19141;48.980;8.410;2023-03-19T09:16:26;100145.09;;;16.02;52.24
32789;BME280;19141;48.980;8.410;2023-03-19T09:18:51;100150.06;;;15.98;52.08
32789;BME280;19141;48.980;8.410;2023-03-19T09:21:16;100144.00;;;16.16;52.56
32789;BME280;19141;48.980;8.410;2023-03-19T09:23:42;100152.69;;;16.25;50.78
32789;BME280;19141;48.980;8.410;2023-03-19T09:26:07;100148.88;;;16.39;52.28
32789;BME280;19141;48.980;8.410;2023-03-19T09:28:33;100151.72;;;16.58;54.87
32789;BME280;19141;48.980;8.410;2023-03-19T09:31:00;100146.47;;;16.76;53.58
32789;BME280;19141;48.980;8.410;2023-03-19T09:33:31;100137.28;;;16.90;49.57
32789;BME280;19141;48.980;8.410;2023-03-19T09:35:57;100147.34;;;16.95;49.49
32789;BME280;19141;48.980;8.410;2023-03-19T09:38:23;100148.63;;;16.92;49.32
32789;BME280;19141;48.980;8.410;2023-03-19T09:41:12;100144.44;;;17.03;49.20
32789;BME280;19141;48.980;8.410;2023-03-19T09:44:00;100141.91;;;17.33;47.97
32789;BME280;19141;48.980;8.410;2023-03-19T09:46:40;100139.22;;;17.58;48.09
32789;BME280;19141;48.980;8.410;2023-03-19T09:49:24;100147.22;;;18.08;47.84
32789;BME280;19141;48.980;8.410;2023-03-19T09:52:04;100141.88;;;18.38;46.30
32789;BME280;19141;48.980;8.410;2023-03-19T09:54:36;100150.84;;;18.50;43.53
32789;BME280;19141;48.980;8.410;2023-03-19T09:57:03;100155.09;;;18.58;44.00
32789;BME280;19141;48.980;8.410;2023-03-19T09:59:29;100146.59;;;18.91;43.57
32789;BME280;19141;48.980;8.410;2023-03-19T10:15:52;100130.25;;;19.28;43.79
32789;BME280;19141;48.980;8.410;2023-03-19T10:18:27;100134.53;;;19.59;44.09
32789;BME280;19141;48.980;8.410;2023-03-19T10:23:43;100137.28;;;20.22;42.19
32789;BME280;19141;48.980;8.410;2023-03-19T10:26:13;100139.44;;;19.73;41.25
32789;BME280;19141;48.980;8.410;2023-03-19T10:28:44;100141.47;;;19.01;41.24
32789;BME280;19141;48.980;8.410;2023-03-19T10:31:25;100138.00;;;18.52;42.01
32789;BME280;19141;48.980;8.410;2023-03-19T10:36:45;100135.38;;;18.46;44.22
32789;BME280;19141;48.980;8.410;2023-03-19T10:39:14;100140.25;;;18.97;43.45
32789;BME280;19141;48.980;8.410;2023-03-19T10:47:38;100120.63;;;19.55;41.56
32789;BME280;19141;48.980;8.410;2023-03-19T10:50:05;100110.41;;;19.57;41.02
32789;BME280;19141;48.980;8.410;2023-03-19T10:52:33;100119.00;;;19.31;42.50
32789;BME280;19141;48.980;8.410;2023-03-19T10:55:14;100120.75;;;19.37;44.04
32789;BME280;19141;48.980;8.410;2023-03-19T10:57:41;100127.72;;;19.03;44.64
32789;BME280;19141;48.980;8.410;2023-03-19T11:00:19;100125.22;;;19.31;44.32
32789;BME280;19141;48.980;8.410;2023-03-19T11:02:51;100130.59;;;19.19;44.87
32789;BME280;19141;48.980;8.410;2023-03-19T11:05:21;100128.34;;;19.28;44.57
32789;BME280;19141;48.980;8.410;2023-03-19T11:08:08;100131.63;;;19.07;44.39
32789;BME280;19141;48.980;8.410;2023-03-19T11:10:46;100133.38;;;19.01;45.97
32789;BME280;19141;48.980;8.410;2023-03-19T11:13:25;100138.91;;;19.06;44.97
32789;BME280;19141;48.980;8.410;2023-03-19T11:15:52;100132.63;;;18.94;46.14
32789;BME280;19141;48.980;8.410;2023-03-19T11:18:26;100137.38;;;18.68;45.83
32789;BME280;19141;48.980;8.410;2023-03-19T11:21:00;100132.69;;;18.76;46.79
32789;BME280;19141;48.980;8.410;2023-03-19T11:23:37;100139.53;;;18.78;45.50
32789;BME280;19141;48.980;8.410;2023-03-19T11:26:03;100134.81;;;18.55;46.99
32789;BME280;19141;48.980;8.410;2023-03-19T11:28:29;100142.00;;;18.61;46.06
32789;BME280;19141;48.980;8.410;2023-03-19T11:31:33;100137.75;;;18.54;47.33
32789;BME280;19141;48.980;8.410;2023-03-19T11:34:16;100137.50;;;18.74;46.42
32789;BME280;19141;48.980;8.410;2023-03-19T11:39:36;100136.94;;;19.25;47.08
32789;BME280;19141;48.980;8.410;2023-03-19T11:47:12;100126.34;;;20.86;42.57
32789;BME280;19141;48.980;8.410;2023-03-19T11:55:10;100120.78;;;20.36;43.33
32789;BME280;19141;48.980;8.410;2023-03-19T12:06:33;100112.41;;;19.85;44.89
32789;BME280;19141;48.980;8.410;2023-03-19T12:15:16;100120.88;;;18.88;44.58
32789;BME280;19141;48.980;8.410;2023-03-19T12:24:26;100121.59;;;18.95;45.35
32789;BME280;19141;48.980;8.410;2023-03-19T12:35:00;100129.34;;;18.62;46.25
32789;BME280;19141;48.980;8.410;2023-03-19T12:40:37;100126.25;;;18.10;47.28
32789;BME280;19141;48.980;8.410;2023-03-19T12:43:16;100122.91;;;17.96;48.67
32789;BME280;19141;48.980;8.410;2023-03-19T12:45:46;100125.59;;;17.96;48.72
32789;BME280;19141;48.980;8.410;2023-03-19T12:48:38;100122.31;;;17.69;49.08
32789;BME280;19141;48.980;8.410;2023-03-19T12:51:09;100121.41;;;17.82;49.27
32789;BME280;19141;48.980;8.410;2023-03-19T12:53:53;100121.50;;;17.69;49.93
32789;BME280;19141;48.980;8.410;2023-03-19T12:56:33;100118.94;;;17.80;49.94
32789;BME280;19141;48.980;8.410;2023-03-19T12:59:31;100127.31;;;17.66;49.58
32789;BME280;19141;48.980;8.410;2023-03-19T13:02:25;100125.03;;;17.44;50.18
32789;BME280;19141;48.980;8.410;2023-03-19T13:04:59;100123.94;;;17.52;50.94
32789;BME280;19141;48.980;8.410;2023-03-19T13:10:43;100132.72;;;17.41;51.59
32789;BME280;19141;48.980;8.410;2023-03-19T13:13:32;100131.81;;;17.28;51.81
32789;BME280;19141;48.980;8.410;2023-03-19T13:16:30;100130.69;;;17.11;52.43
32789;BME280;19141;48.980;8.410;2023-03-19T13:19:10;100139.25;;;17.01;52.17
32789;BME280;19141;48.980;8.410;2023-03-19T13:21:39;100128.81;;;16.87;52.22
32789;BME280;19141;48.980;8.410;2023-03-19T13:24:16;100135.72;;;16.76;53.69
32789;BME280;19141;48.980;8.410;2023-03-19T13:26:43;100119.94;;;16.79;53.26
32789;BME280;19141;48.980;8.410;2023-03-19T13:29:18;100135.50;;;16.77;53.67
32789;BME280;19141;48.980;8.410;2023-03-19T13:31:45;100132.44;;;16.61;54.24
32789;BME280;19141;48.980;8.410;2023-03-19T13:36:45;100130.97;;;16.65;54.74
32789;BME280;19141;48.980;8.410;2023-03-19T13:39:18;100137.34;;;16.77;54.10
32789;BME280;19141;48.980;8.410;2023-03-19T13:44:50;100120.25;;;16.96;54.87
32789;BME280;19141;48.980;8.410;2023-03-19T13:50:19;100123.91;;;16.77;55.72
32789;BME280;19141;48.980;8.410;2023-03-19T13:52:48;100125.97;;;16.75;57.35
32789;BME280;19141;48.980;8.410;2023-03-19T14:03:21;100117.94;;;16.62;57.88
32789;BME280;19141;48.980;8.410;2023-03-19T14:05:50;100114.78;;;16.78;56.91
32789;BME280;19141;48.980;8.410;2023-03-19T14:08:26;100120.34;;;16.83;56.80
32789;BME280;19141;48.980;8.410;2023-03-19T14:10:55;100123.94;;;16.70;58.45
32789;BME280;19141;48.980;8.410;2023-03-19T14:13:30;100113.09;;;16.84;56.68
32789;BME280;19141;48.980;8.410;2023-03-19T14:16:04;100116.25;;;16.74;58.41
32789;BME280;19141;48.980;8.410;2023-03-19T14:18:30;100120.41;;;16.76;57.85
32789;BME280;19141;48.980;8.410;2023-03-19T14:21:03;100122.09;;;16.71;58.95
32789;BME280;19141;48.980;8.410;2023-03-19T14:23:29;100113.69;;;16.47;58.35
32789;BME280;19141;48.980;8.410;2023-03-19T14:28:59;100118.88;;;16.42;59.10
32789;BME280;19141;48.980;8.410;2023-03-19T14:31:41;100118.38;;;16.20;60.79
32789;BME280;19141;48.980;8.410;2023-03-19T14:34:20;100110.09;;;16.22;59.92
32789;BME280;19141;48.980;8.410;2023-03-19T14:37:21;100111.66;;;15.91;61.65
32789;BME280;19141;48.980;8.410;2023-03-19T14:39:54;100114.78;;;15.75;63.83
32789;BME280;19141;48.980;8.410;2023-03-19T14:42:26;100109.44;;;15.68;62.50
32789;BME280;19141;48.980;8.410;2023-03-19T14:53:09;100117.50;;;15.68;62.63
32789;BME280;19141;48.980;8.410;2023-03-19T14:55:39;100111.50;;;15.73;62.04
32789;BME280;19141;48.980;8.410;2023-03-19T14:58:09;100112.72;;;15.70;62.75
32789;BME280;19141;48.980;8.410;2023-03-19T15:00:54;100113.75;;;15.76;62.77
32789;BME280;19141;48.980;8.410;2023-03-19T15:03:34;100111.88;;;15.83;64.09
32789;BME280;19141;48.980;8.410;2023-03-19T15:06:03;100112.69;;;15.84;64.29
32789;BME280;19141;48.980;8.410;2023-03-19T15:08:31;100105.88;;;15.88;62.86
32789;BME280;19141;48.980;8.410;2023-03-19T15:11:23;100117.00;;;15.98;62.00
32789;BME280;19141;48.980;8.410;2023-03-19T15:14:09;100102.94;;;16.02;63.59
32789;BME280;19141;48.980;8.410;2023-03-19T15:19:31;100109.72;;;16.12;64.72
32789;BME280;19141;48.980;8.410;2023-03-19T15:22:14;100104.06;;;16.26;63.47
32789;BME280;19141;48.980;8.410;2023-03-19T15:24:41;100101.34;;;16.33;61.82
32789;BME280;19141;48.980;8.410;2023-03-19T15:27:24;100110.56;;;16.57;62.19
32789;BME280;19141;48.980;8.410;2023-03-19T15:29:50;100109.84;;;16.68;60.56
32789;BME280;19141;48.980;8.410;2023-03-19T15:32:49;100117.31;;;16.66;59.98
32789;BME280;19141;48.980;8.410;2023-03-19T15:35:14;100127.66;;;16.69;60.55
32789;BME280;19141;48.980;8.410;2023-03-19T15:37:42;100131.06;;;16.51;60.68
32789;BME280;19141;48.980;8.410;2023-03-19T15:40:12;100121.16;;;16.45;59.60
32789;BME280;19141;48.980;8.410;2023-03-19T15:42:40;100118.84;;;16.49;59.77
32789;BME280;19141;48.980;8.410;2023-03-19T15:45:09;100115.38;;;16.42;62.00
32789;BME280;19141;48.980;8.410;2023-03-19T15:47:46;100118.31;;;16.34;61.83
32789;BME280;19141;48.980;8.410;2023-03-19T15:50:17;100123.97;;;16.12;61.97
32789;BME280;19141;48.980;8.410;2023-03-19T15:52:53;100116.59;;;15.94;62.84
32789;BME280;19141;48.980;8.410;2023-03-19T15:55:22;100120.38;;;15.73;64.58
32789;BME280;19141;48.980;8.410;2023-03-19T15:57:51;100125.94;;;15.59;66.05
32789;BME280;19141;48.980;8.410;2023-03-19T16:00:19;100134.00;;;15.59;65.69
32789;BME280;19141;48.980;8.410;2023-03-19T16:02:47;100143.72;;;15.46;67.16
32789;BME280;19141;48.980;8.410;2023-03-19T16:05:32;100147.84;;;15.36;67.35
32789;BME280;19141;48.980;8.410;2023-03-19T16:08:21;100147.03;;;15.29;68.41
32789;BME280;19141;48.980;8.410;2023-03-19T16:10:48;100165.19;;;15.27;69.75
32789;BME280;19141;48.980;8.410;2023-03-19T16:13:36;100172.59;;;15.11;70.66
32789;BME280;19141;48.980;8.410;2023-03-19T16:16:05;100180.81;;;14.97;70.97
32789;BME280;19141;48.980;8.410;2023-03-19T16:18:54;100194.78;;;14.79;72.88
32789;BME280;19141;48.980;8.410;2023-03-19T16:23:58;100194.75;;;13.62;90.74
32789;BME280;19141;48.980;8.410;2023-03-19T16:26:29;100199.09;;;12.98;94.66
32789;BME280;19141;48.980;8.410;2023-03-19T16:29:23;100208.47;;;12.22;100.00
32789;BME280;19141;48.980;8.410;2023-03-19T16:31:51;100198.81;;;11.68;100.00
32789;BME280;19141;48.980;8.410;2023-03-19T16:36:52;100221.00;;;11.46;100.00
32789;BME280;19141;48.980;8.410;2023-03-19T16:39:33;100233.19;;;11.26;100.00
32789;BME280;19141;48.980;8.410;2023-03-19T16:44:41;100236.38;;;10.98;100.00
32789;BME280;19141;48.980;8.410;2023-03-19T16:47:12;100238.28;;;10.81;100.00
32789;BME280;19141;48.980;8.410;2023-03-19T16:49:38;100238.97;;;10.75;100.00
32789;BME280;19141;48.980;8.410;2023-03-19T16:52:03;100228.56;;;10.66;100.00
32789;BME280;19141;48.980;8.410;2023-03-19T16:54:30;100225.06;;;10.65;100.00
32789;BME280;19141;48.980;8.410;2023-03-19T16:56:55;100231.34;;;10.72;100.00
32789;BME280;19141;48.980;8.410;2023-03-19T16:59:26;100237.19;;;10.76;100.00
32789;BME280;19141;48.980;8.410;2023-03-19T17:01:52;100230.13;;;10.83;100.00
32789;BME280;19141;48.980;8.410;2023-03-19T17:04:18;100243.41;;;10.91;100.00
32789;BME280;19141;48.980;8.410;2023-03-19T17:06:43;100243.34;;;10.99;100.00
32789;BME280;19141;48.980;8.410;2023-03-19T17:09:09;100245.13;;;11.07;100.00
32789;BME280;19141;48.980;8.410;2023-03-19T17:11:37;100249.25;;;11.18;100.00
32789;BME280;19141;48.980;8.410;2023-03-19T17:14:05;100245.03;;;11.23;100.00
32789;BME280;19141;48.980;8.410;2023-03-19T17:16:34;100253.16;;;11.30;100.00
32789;BME280;19141;48.980;8.410;2023-03-19T17:18:59;100251.44;;;11.37;100.00
32789;BME280;19141;48.980;8.410;2023-03-19T17:21:28;100260.91;;;11.39;100.00
32789;BME280;19141;48.980;8.410;2023-03-19T17:23:55;100256.69;;;11.45;100.00
32789;BME280;19141;48.980;8.410;2023-03-19T17:26:26;100254.69;;;11.47;100.00
32789;BME280;19141;48.980;8.410;2023-03-19T17:28:53;100255.88;;;11.45;100.00
32789;BME280;19141;48.980;8.410;2023-03-19T17:33:47;100256.25;;;11.41;100.00
32789;BME280;19141;48.980;8.410;2023-03-19T17:36:12;100248.59;;;11.38;100.00
32789;BME280;19141;48.980;8.410;2023-03-19T17:38:38;100247.66;;;11.31;100.00
32789;BME280;19141;48.980;8.410;2023-03-19T17:41:30;100261.47;;;11.35;100.00
32789;BME280;19141;48.980;8.410;2023-03-19T17:43:57;100261.09;;;11.38;100.00
32789;BME280;19141;48.980;8.410;2023-03-19T17:46:24;100263.13;;;11.36;100.00
32789;BME280;19141;48.980;8.410;2023-03-19T17:48:51;100257.13;;;11.34;100.00
32789;BME280;19141;48.980;8.410;2023-03-19T17:51:18;100268.84;;;11.25;100.00
32789;BME280;19141;48.980;8.410;2023-03-19T17:53:48;100266.25;;;11.17;100.00
32789;BME280;19141;48.980;8.410;2023-03-19T17:56:16;100267.47;;;11.06;100.00
32789;BME280;19141;48.980;8.410;2023-03-19T17:58:42;100261.69;;;11.02;100.00
32789;BME280;19141;48.980;8.410;2023-03-19T18:01:13;100265.50;;;11.00;100.00
32789;BME280;19141;48.980;8.410;2023-03-19T18:03:40;100269.88;;;10.93;100.00
32789;BME280;19141;48.980;8.410;2023-03-19T18:06:14;100272.94;;;10.81;100.00
32789;BME280;19141;48.980;8.410;2023-03-19T18:08:40;100279.50;;;10.71;100.00
32789;BME280;19141;48.980;8.410;2023-03-19T18:11:05;100279.81;;;10.68;100.00
32789;BME280;19141;48.980;8.410;2023-03-19T18:13:30;100285.00;;;10.61;100.00
32789;BME280;19141;48.980;8.410;2023-03-19T18:15:56;100291.84;;;10.55;100.00
32789;BME280;19141;48.980;8.410;2023-03-19T18:18:21;100279.56;;;10.46;100.00
32789;BME280;19141;48.980;8.410;2023-03-19T18:20:47;100291.06;;;10.47;100.00
32789;BME280;19141;48.980;8.410;2023-03-19T18:23:13;100296.56;;;10.45;100.00
32789;BME280;19141;48.980;8.410;2023-03-19T18:25:41;100294.41;;;10.41;100.00
32789;BME280;19141;48.980;8.410;2023-03-19T18:28:07;100297.56;;;10.36;100.00
32789;BME280;19141;48.980;8.410;2023-03-19T18:30:34;100303.94;;;10.27;100.00
32789;BME280;19141;48.980;8.410;2023-03-19T18:33:03;100299.06;;;10.22;100.00
32789;BME280;19141;48.980;8.410;2023-03-19T18:35:32;100297.59;;;10.20;100.00
32789;BME280;19141;48.980;8.410;2023-03-19T18:37:58;100299.78;;;10.24;100.00
32789;BME280;19141;48.980;8.410;2023-03-19T18:40:27;100304.09;;;10.25;100.00
32789;BME280;19141;48.980;8.410;2023-03-19T18:42:52;100312.41;;;10.14;100.00
32789;BME280;19141;48.980;8.410;2023-03-19T18:45:18;100320.88;;;10.10;100.00
32789;BME280;19141;48.980;8.410;2023-03-19T18:47:46;100315.25;;;10.04;100.00
32789;BME280;19141;48.980;8.410;2023-03-19T18:50:20;100314.41;;;10.04;100.00
32789;BME280;19141;48.980;8.410;2023-03-19T18:52:48;100320.56;;;10.04;100.00
32789;BME280;19141;48.980;8.410;2023-03-19T18:55:15;100319.56;;;9.97;100.00
32789;BME280;19141;48.980;8.410;2023-03-19T18:57:53;100313.59;;;9.95;100.00
32789;BME280;19141;48.980;8.410;2023-03-19T19:00:31;100309.09;;;9.88;100.00
32789;BME280;19141;48.980;8.410;2023-03-19T19:02:57;100311.75;;;9.88;100.00
32789;BME280;19141;48.980;8.410;2023-03-19T19:05:27;100318.09;;;9.87;100.00
32789;BME280;19141;48.980;8.410;2023-03-19T19:07:54;100312.59;;;9.88;100.00
32789;BME280;19141;48.980;8.410;2023-03-19T19:10:21;100319.09;;;9.86;100.00
32789;BME280;19141;48.980;8.410;2023-03-19T19:12:48;100317.56;;;9.83;100.00
32789;BME280;19141;48.980;8.410;2023-03-19T19:15:27;100319.56;;;9.81;100.00
32789;BME280;19141;48.980;8.410;2023-03-19T19:17:54;100324.25;;;9.79;100.00
32789;BME280;19141;48.980;8.410;2023-03-19T19:20:21;100324.56;;;9.76;100.00
32789;BME280;19141;48.980;8.410;2023-03-19T19:22:47;100328.53;;;9.64;100.00
32789;BME280;19141;48.980;8.410;2023-03-19T19:25:17;100324.88;;;9.65;100.00
32789;BME280;19141;48.980;8.410;2023-03-19T19:27:44;100331.88;;;9.66;100.00
32789;BME280;19141;48.980;8.410;2023-03-19T19:30:19;100339.03;;;9.65;100.00
32789;BME280;19141;48.980;8.410;2023-03-19T19:32:45;100348.16;;;9.63;100.00
32789;BME280;19141;48.980;8.410;2023-03-19T19:35:17;100347.50;;;9.61;100.00
32789;BME280;19141;48.980;8.410;2023-03-19T19:37:43;100347.50;;;9.61;100.00
32789;BME280;19141;48.980;8.410;2023-03-19T19:40:11;100351.66;;;9.55;100.00
32789;BME280;19141;48.980;8.410;2023-03-19T19:42:37;100358.44;;;9.58;100.00
32789;BME280;19141;48.980;8.410;2023-03-19T19:45:03;100360.78;;;9.52;100.00
32789;BME280;19141;48.980;8.410;2023-03-19T19:47:29;100364.94;;;9.55;100.00
32789;BME280;19141;48.980;8.410;2023-03-19T19:49:54;100370.25;;;9.55;100.00
32789;BME280;19141;48.980;8.410;2023-03-19T19:52:20;100364.09;;;9.55;100.00
32789;BME280;19141;48.980;8.410;2023-03-19T19:54:46;100368.59;;;9.54;100.00
32789;BME280;19141;48.980;8.410;2023-03-19T19:57:19;100367.59;;;9.55;100.00
32789;BME280;19141;48.980;8.410;2023-03-19T19:59:50;100374.41;;;9.58;100.00
32789;BME280;19141;48.980;8.410;2023-03-19T20:02:27;100375.41;;;9.57;100.00
32789;BME280;19141;48.980;8.410;2023-03-19T20:04:53;100379.72;;;9.58;100.00
32789;BME280;19141;48.980;8.410;2023-03-19T20:07:20;100389.41;;;9.59;100.00
32789;BME280;19141;48.980;8.410;2023-03-19T20:09:45;100392.38;;;9.56;100.00
32789;BME280;19141;48.980;8.410;2023-03-19T20:12:22;100391.53;;;9.55;100.00
32789;BME280;19141;48.980;8.410;2023-03-19T20:14:49;100392.00;;;9.50;100.00
32789;BME280;19141;48.980;8.410;2023-03-19T20:17:16;100396.00;;;9.46;100.00
32789;BME280;19141;48.980;8.410;2023-03-19T20:19:42;100399.31;;;9.48;100.00
32789;BME280;19141;48.980;8.410;2023-03-19T20:22:08;100387.84;;;9.40;100.00
32789;BME280;19141;48.980;8.410;2023-03-19T20:24:34;100395.47;;;9.43;100.00